Terminal Aerodrome Forecast
Issued by NWS Charleston, WV

Home | Current Version | Previous Version | Text Only | Print | Product List | Glossary On
Versions: 1 2 3 4 5 6 7 8 9 10 11 12 13 14 15 16 17 18 19 20 21 22 23 24 25 26 27
000
FTUS41 KRLX 310300 AAA
TAFCRW
TAF AMD
KCRW 310301Z 3103/3124 15003KT P6SM SKC
     FM311600 25004KT 5SM -SHRA BR OVC040
     FM311900 28004KT 3SM -SHRA BR OVC025
     FM312200 28004KT 2SM -SHRA BR OVC020=

USA.gov is the U.S. government's official web portal to all federal, state and local government web resources and services.